sensor_id;sensor_type;location;lat;lon;timestamp;temperature;humidity
84141;DHT22;74257;52.540;13.416;2023-12-28T00:00:28;20.50;44.50
84141;DHT22;74257;52.540;13.416;2023-12-28T00:03:14;20.50;44.50
84141;DHT22;74257;52.540;13.416;2023-12-28T00:05:40;20.50;44.50
84141;DHT22;74257;52.540;13.416;2023-12-28T00:08:06;20.50;44.50
84141;DHT22;74257;52.540;13.416;2023-12-28T00:10:32;20.50;44.50
84141;DHT22;74257;52.540;13.416;2023-12-28T00:12:58;20.50;44.50
84141;DHT22;74257;52.540;13.416;2023-12-28T00:15:23;20.50;44.50
84141;DHT22;74257;52.540;13.416;2023-12-28T00:17:49;20.50;44.40
84141;DHT22;74257;52.540;13.416;2023-12-28T00:20:15;20.50;44.50
84141;DHT22;74257;52.540;13.416;2023-12-28T00:22:41;20.50;44.40
84141;DHT22;74257;52.540;13.416;2023-12-28T00:25:07;20.50;44.50
84141;DHT22;74257;52.540;13.416;2023-12-28T00:27:33;20.50;44.40
84141;DHT22;74257;52.540;13.416;2023-12-28T00:30:07;20.50;44.40
84141;DHT22;74257;52.540;13.416;2023-12-28T00:32:33;20.50;44.40
84141;DHT22;74257;52.540;13.416;2023-12-28T00:34:59;20.50;44.40
84141;DHT22;74257;52.540;13.416;2023-12-28T00:37:25;20.50;44.40
84141;DHT22;74257;52.540;13.416;2023-12-28T00:39:50;20.40;44.50
84141;DHT22;74257;52.540;13.416;2023-12-28T00:42:17;20.50;44.40
84141;DHT22;74257;52.540;13.416;2023-12-28T00:44:44;20.40;44.40
84141;DHT22;74257;52.540;13.416;2023-12-28T00:47:10;20.50;44.40
84141;DHT22;74257;52.540;13.416;2023-12-28T00:49:36;20.40;44.40
84141;DHT22;74257;52.540;13.416;2023-12-28T00:52:02;20.40;44.40
84141;DHT22;74257;52.540;13.416;2023-12-28T00:54:28;20.40;44.40
84141;DHT22;74257;52.540;13.416;2023-12-28T00:56:54;20.40;44.40
84141;DHT22;74257;52.540;13.416;2023-12-28T00:59:19;20.40;44.40
84141;DHT22;74257;52.540;13.416;2023-12-28T01:01:45;20.40;44.40
84141;DHT22;74257;52.540;13.416;2023-12-28T01:04:11;20.30;44.40
84141;DHT22;74257;52.540;13.416;2023-12-28T01:06:37;20.30;44.30
84141;DHT22;74257;52.540;13.416;2023-12-28T01:09:03;20.40;44.30
84141;DHT22;74257;52.540;13.416;2023-12-28T01:11:29;20.30;44.30
84141;DHT22;74257;52.540;13.416;2023-12-28T01:13:54;20.30;44.30
84141;DHT22;74257;52.540;13.416;2023-12-28T01:16:20;20.30;44.30
84141;DHT22;74257;52.540;13.416;2023-12-28T01:18:46;20.30;44.30
84141;DHT22;74257;52.540;13.416;2023-12-28T01:21:12;20.30;44.30
84141;DHT22;74257;52.540;13.416;2023-12-28T01:23:38;20.30;44.30
84141;DHT22;74257;52.540;13.416;2023-12-28T01:26:04;20.30;44.40
84141;DHT22;74257;52.540;13.416;2023-12-28T01:28:29;20.30;44.30
84141;DHT22;74257;52.540;13.416;2023-12-28T01:30:55;20.30;44.30
84141;DHT22;74257;52.540;13.416;2023-12-28T01:33:21;20.30;44.40
84141;DHT22;74257;52.540;13.416;2023-12-28T01:35:47;20.30;44.30
84141;DHT22;74257;52.540;13.416;2023-12-28T01:38:13;20.30;44.30
84141;DHT22;74257;52.540;13.416;2023-12-28T01:40:44;20.30;44.30
84141;DHT22;74257;52.540;13.416;2023-12-28T01:43:10;20.30;44.40
84141;DHT22;74257;52.540;13.416;2023-12-28T01:45:36;20.30;44.30
84141;DHT22;74257;52.540;13.416;2023-12-28T01:48:02;20.30;44.40
84141;DHT22;74257;52.540;13.416;2023-12-28T01:50:30;20.30;44.30
84141;DHT22;74257;52.540;13.416;2023-12-28T01:52:58;20.30;44.30
84141;DHT22;74257;52.540;13.416;2023-12-28T01:55:27;20.30;44.40
84141;DHT22;74257;52.540;13.416;2023-12-28T01:57:54;20.30;44.30
84141;DHT22;74257;52.540;13.416;2023-12-28T02:00:24;20.30;44.40
84141;DHT22;74257;52.540;13.416;2023-12-28T02:02:50;20.30;44.30
84141;DHT22;74257;52.540;13.416;2023-12-28T02:05:17;20.30;44.40
84141;DHT22;74257;52.540;13.416;2023-12-28T02:07:43;20.30;44.40
84141;DHT22;74257;52.540;13.416;2023-12-28T02:10:09;20.30;44.40
84141;DHT22;74257;52.540;13.416;2023-12-28T02:12:34;20.30;44.40
84141;DHT22;74257;52.540;13.416;2023-12-28T02:15:01;20.30;44.30
84141;DHT22;74257;52.540;13.416;2023-12-28T02:18:05;20.30;44.40
84141;DHT22;74257;52.540;13.416;2023-12-28T02:20:32;20.30;44.30
84141;DHT22;74257;52.540;13.416;2023-12-28T02:22:59;20.30;44.40
84141;DHT22;74257;52.540;13.416;2023-12-28T02:25:25;20.30;44.40
84141;DHT22;74257;52.540;13.416;2023-12-28T02:27:51;20.30;44.30
84141;DHT22;74257;52.540;13.416;2023-12-28T02:30:22;20.30;44.30
84141;DHT22;74257;52.540;13.416;2023-12-28T02:33:08;20.30;44.30
84141;DHT22;74257;52.540;13.416;2023-12-28T02:35:43;20.30;44.30
84141;DHT22;74257;52.540;13.416;2023-12-28T02:38:10;20.30;44.30
84141;DHT22;74257;52.540;13.416;2023-12-28T02:40:38;20.30;44.20
84141;DHT22;74257;52.540;13.416;2023-12-28T02:43:06;20.30;44.20
84141;DHT22;74257;52.540;13.416;2023-12-28T02:45:32;20.30;44.20
84141;DHT22;74257;52.540;13.416;2023-12-28T02:47:57;20.30;44.20
84141;DHT22;74257;52.540;13.416;2023-12-28T02:50:23;20.20;44.20
84141;DHT22;74257;52.540;13.416;2023-12-28T02:52:49;20.20;44.20
84141;DHT22;74257;52.540;13.416;2023-12-28T02:55:15;20.20;44.20
84141;DHT22;74257;52.540;13.416;2023-12-28T02:57:41;20.20;44.10
84141;DHT22;74257;52.540;13.416;2023-12-28T03:00:07;20.20;44.20
84141;DHT22;74257;52.540;13.416;2023-12-28T03:02:36;20.20;44.20
84141;DHT22;74257;52.540;13.416;2023-12-28T03:05:04;20.20;44.20
84141;DHT22;74257;52.540;13.416;2023-12-28T03:07:31;20.20;44.20
84141;DHT22;74257;52.540;13.416;2023-12-28T03:09:57;20.20;44.20
84141;DHT22;74257;52.540;13.416;2023-12-28T03:12:23;20.20;44.20
84141;DHT22;74257;52.540;13.416;2023-12-28T03:14:50;20.20;44.20
84141;DHT22;74257;52.540;13.416;2023-12-28T03:17:16;20.20;44.20
84141;DHT22;74257;52.540;13.416;2023-12-28T03:19:41;20.10;44.20
84141;DHT22;74257;52.540;13.416;2023-12-28T03:22:07;20.20;44.10
84141;DHT22;74257;52.540;13.416;2023-12-28T03:24:33;20.20;44.20
84141;DHT22;74257;52.540;13.416;2023-12-28T03:26:59;20.20;44.20
84141;DHT22;74257;52.540;13.416;2023-12-28T03:29:25;20.10;44.10
84141;DHT22;74257;52.540;13.416;2023-12-28T03:31:51;20.10;44.20
84141;DHT22;74257;52.540;13.416;2023-12-28T03:34:17;20.10;44.20
84141;DHT22;74257;52.540;13.416;2023-12-28T03:36:43;20.20;44.20
84141;DHT22;74257;52.540;13.416;2023-12-28T03:39:09;20.10;44.20
84141;DHT22;74257;52.540;13.416;2023-12-28T03:41:34;20.10;44.20
84141;DHT22;74257;52.540;13.416;2023-12-28T03:44:00;20.10;44.20
84141;DHT22;74257;52.540;13.416;2023-12-28T03:46:26;20.10;44.30
84141;DHT22;74257;52.540;13.416;2023-12-28T03:48:53;20.10;44.20
84141;DHT22;74257;52.540;13.416;2023-12-28T03:51:19;20.10;44.20
84141;DHT22;74257;52.540;13.416;2023-12-28T03:53:45;20.10;44.20
84141;DHT22;74257;52.540;13.416;2023-12-28T03:56:21;20.20;44.20
84141;DHT22;74257;52.540;13.416;2023-12-28T03:58:49;20.20;44.20
84141;DHT22;74257;52.540;13.416;2023-12-28T04:01:17;20.10;44.20
84141;DHT22;74257;52.540;13.416;2023-12-28T04:03:43;20.10;44.20
84141;DHT22;74257;52.540;13.416;2023-12-28T04:06:09;20.10;44.20
84141;DHT22;74257;52.540;13.416;2023-12-28T04:08:35;20.10;44.20
84141;DHT22;74257;52.540;13.416;2023-12-28T04:11:01;20.10;44.20
84141;DHT22;74257;52.540;13.416;2023-12-28T04:13:26;20.10;44.20
84141;DHT22;74257;52.540;13.416;2023-12-28T04:15:52;20.10;44.20
84141;DHT22;74257;52.540;13.416;2023-12-28T04:18:18;20.10;44.20
84141;DHT22;74257;52.540;13.416;2023-12-28T04:20:44;20.10;44.20
84141;DHT22;74257;52.540;13.416;2023-12-28T04:23:13;20.10;44.20
84141;DHT22;74257;52.540;13.416;2023-12-28T04:25:39;20.10;44.10
84141;DHT22;74257;52.540;13.416;2023-12-28T04:28:06;20.10;44.20
84141;DHT22;74257;52.540;13.416;2023-12-28T04:30:32;20.10;44.20
84141;DHT22;74257;52.540;13.416;2023-12-28T04:32:57;20.10;44.20
84141;DHT22;74257;52.540;13.416;2023-12-28T04:35:23;20.10;44.10
84141;DHT22;74257;52.540;13.416;2023-12-28T04:37:49;20.10;44.10
84141;DHT22;74257;52.540;13.416;2023-12-28T04:40:15;20.10;44.10
84141;DHT22;74257;52.540;13.416;2023-12-28T04:42:43;20.10;44.10
84141;DHT22;74257;52.540;13.416;2023-12-28T04:45:09;20.10;44.10
84141;DHT22;74257;52.540;13.416;2023-12-28T04:47:36;20.10;44.00
84141;DHT22;74257;52.540;13.416;2023-12-28T04:50:06;20.10;44.00
84141;DHT22;74257;52.540;13.416;2023-12-28T04:52:32;20.10;44.00
84141;DHT22;74257;52.540;13.416;2023-12-28T04:54:58;20.10;44.00
84141;DHT22;74257;52.540;13.416;2023-12-28T04:57:24;20.10;44.00
84141;DHT22;74257;52.540;13.416;2023-12-28T04:59:51;20.10;44.00
84141;DHT22;74257;52.540;13.416;2023-12-28T05:02:17;20.10;44.00
84141;DHT22;74257;52.540;13.416;2023-12-28T05:04:43;20.10;44.00
84141;DHT22;74257;52.540;13.416;2023-12-28T05:07:09;20.10;44.00
84141;DHT22;74257;52.540;13.416;2023-12-28T05:09:35;20.10;44.00
84141;DHT22;74257;52.540;13.416;2023-12-28T05:12:01;20.10;43.90
84141;DHT22;74257;52.540;13.416;2023-12-28T05:14:28;20.10;44.00
84141;DHT22;74257;52.540;13.416;2023-12-28T05:16:54;20.10;43.90
84141;DHT22;74257;52.540;13.416;2023-12-28T05:19:19;20.10;44.00
84141;DHT22;74257;52.540;13.416;2023-12-28T05:21:45;20.10;44.00
84141;DHT22;74257;52.540;13.416;2023-12-28T05:24:12;20.10;44.00
84141;DHT22;74257;52.540;13.416;2023-12-28T05:26:39;20.10;44.00
84141;DHT22;74257;52.540;13.416;2023-12-28T05:29:04;20.10;44.00
84141;DHT22;74257;52.540;13.416;2023-12-28T05:31:30;20.10;44.00
84141;DHT22;74257;52.540;13.416;2023-12-28T05:33:56;20.10;43.90
84141;DHT22;74257;52.540;13.416;2023-12-28T05:36:26;20.10;43.90
84141;DHT22;74257;52.540;13.416;2023-12-28T05:38:52;20.10;44.00
84141;DHT22;74257;52.540;13.416;2023-12-28T05:41:18;20.10;43.90
84141;DHT22;74257;52.540;13.416;2023-12-28T05:43:44;20.10;44.00
84141;DHT22;74257;52.540;13.416;2023-12-28T05:46:09;20.10;44.00
84141;DHT22;74257;52.540;13.416;2023-12-28T05:48:35;20.10;44.00
84141;DHT22;74257;52.540;13.416;2023-12-28T05:51:01;20.10;44.00
84141;DHT22;74257;52.540;13.416;2023-12-28T05:53:27;20.10;44.00
84141;DHT22;74257;52.540;13.416;2023-12-28T05:55:54;20.10;44.00
84141;DHT22;74257;52.540;13.416;2023-12-28T05:58:19;20.10;44.00
84141;DHT22;74257;52.540;13.416;2023-12-28T06:00:45;20.10;44.00
84141;DHT22;74257;52.540;13.416;2023-12-28T06:03:14;20.10;44.00
84141;DHT22;74257;52.540;13.416;2023-12-28T06:05:40;20.10;44.00
84141;DHT22;74257;52.540;13.416;2023-12-28T06:08:06;20.10;44.00
84141;DHT22;74257;52.540;13.416;2023-12-28T06:10:32;20.10;44.00
84141;DHT22;74257;52.540;13.416;2023-12-28T06:12:58;20.10;44.10
84141;DHT22;74257;52.540;13.416;2023-12-28T06:15:24;20.10;44.10
84141;DHT22;74257;52.540;13.416;2023-12-28T06:17:49;20.10;44.10
84141;DHT22;74257;52.540;13.416;2023-12-28T06:20:15;20.10;44.10
84141;DHT22;74257;52.540;13.416;2023-12-28T06:22:41;20.10;44.00
84141;DHT22;74257;52.540;13.416;2023-12-28T06:25:10;20.10;44.10
84141;DHT22;74257;52.540;13.416;2023-12-28T06:27:36;20.10;44.00
84141;DHT22;74257;52.540;13.416;2023-12-28T06:30:02;20.10;44.10
84141;DHT22;74257;52.540;13.416;2023-12-28T06:32:28;20.10;44.10
84141;DHT22;74257;52.540;13.416;2023-12-28T06:34:54;20.10;44.10
84141;DHT22;74257;52.540;13.416;2023-12-28T06:37:19;20.10;44.00
84141;DHT22;74257;52.540;13.416;2023-12-28T06:39:45;20.10;44.10
84141;DHT22;74257;52.540;13.416;2023-12-28T06:42:11;20.10;44.20
84141;DHT22;74257;52.540;13.416;2023-12-28T06:44:37;20.10;44.20
84141;DHT22;74257;52.540;13.416;2023-12-28T06:47:03;20.10;44.20
84141;DHT22;74257;52.540;13.416;2023-12-28T06:49:29;20.20;44.30
84141;DHT22;74257;52.540;13.416;2023-12-28T06:51:54;20.30;44.30
84141;DHT22;74257;52.540;13.416;2023-12-28T06:54:20;20.30;44.40
84141;DHT22;74257;52.540;13.416;2023-12-28T06:56:46;20.30;44.40
84141;DHT22;74257;52.540;13.416;2023-12-28T06:59:12;20.50;44.40
84141;DHT22;74257;52.540;13.416;2023-12-28T07:01:38;20.50;44.40
84141;DHT22;74257;52.540;13.416;2023-12-28T07:04:04;20.50;44.40
84141;DHT22;74257;52.540;13.416;2023-12-28T07:06:30;20.60;44.40
84141;DHT22;74257;52.540;13.416;2023-12-28T07:08:56;20.70;44.30
84141;DHT22;74257;52.540;13.416;2023-12-28T07:11:22;20.70;44.30
84141;DHT22;74257;52.540;13.416;2023-12-28T07:13:48;20.80;44.20
84141;DHT22;74257;52.540;13.416;2023-12-28T07:16:14;20.80;44.20
84141;DHT22;74257;52.540;13.416;2023-12-28T07:18:40;20.90;44.10
84141;DHT22;74257;52.540;13.416;2023-12-28T07:21:05;21.00;44.10
84141;DHT22;74257;52.540;13.416;2023-12-28T07:23:35;21.00;44.00
84141;DHT22;74257;52.540;13.416;2023-12-28T07:26:01;21.00;44.00
84141;DHT22;74257;52.540;13.416;2023-12-28T07:28:27;21.10;44.00
84141;DHT22;74257;52.540;13.416;2023-12-28T07:30:54;21.10;43.90
84141;DHT22;74257;52.540;13.416;2023-12-28T07:33:20;21.10;43.90
84141;DHT22;74257;52.540;13.416;2023-12-28T07:35:46;21.20;43.90
84141;DHT22;74257;52.540;13.416;2023-12-28T07:38:12;21.30;43.80
84141;DHT22;74257;52.540;13.416;2023-12-28T07:40:38;21.30;43.80
84141;DHT22;74257;52.540;13.416;2023-12-28T07:43:04;21.40;43.70
84141;DHT22;74257;52.540;13.416;2023-12-28T07:45:30;21.40;43.70
84141;DHT22;74257;52.540;13.416;2023-12-28T07:47:59;21.40;43.70
84141;DHT22;74257;52.540;13.416;2023-12-28T07:50:25;21.50;43.60
84141;DHT22;74257;52.540;13.416;2023-12-28T07:52:51;21.50;43.60
84141;DHT22;74257;52.540;13.416;2023-12-28T07:55:17;21.50;43.50
84141;DHT22;74257;52.540;13.416;2023-12-28T07:57:43;21.50;43.60
84141;DHT22;74257;52.540;13.416;2023-12-28T08:00:09;21.50;43.50
84141;DHT22;74257;52.540;13.416;2023-12-28T08:02:35;21.60;43.50
84141;DHT22;74257;52.540;13.416;2023-12-28T08:05:01;21.60;43.50
84141;DHT22;74257;52.540;13.416;2023-12-28T08:07:27;21.70;43.40
84141;DHT22;74257;52.540;13.416;2023-12-28T08:09:53;21.70;43.40
84141;DHT22;74257;52.540;13.416;2023-12-28T08:12:19;21.70;43.30
84141;DHT22;74257;52.540;13.416;2023-12-28T08:14:47;21.70;43.40
84141;DHT22;74257;52.540;13.416;2023-12-28T08:17:13;21.70;43.30
84141;DHT22;74257;52.540;13.416;2023-12-28T08:19:39;21.70;43.30
84141;DHT22;74257;52.540;13.416;2023-12-28T08:22:04;21.80;43.20
84141;DHT22;74257;52.540;13.416;2023-12-28T08:24:30;21.80;43.20
84141;DHT22;74257;52.540;13.416;2023-12-28T08:26:57;21.80;43.20
84141;DHT22;74257;52.540;13.416;2023-12-28T08:29:27;21.90;43.20
84141;DHT22;74257;52.540;13.416;2023-12-28T08:31:52;21.90;43.20
84141;DHT22;74257;52.540;13.416;2023-12-28T08:34:18;21.90;43.10
84141;DHT22;74257;52.540;13.416;2023-12-28T08:36:44;21.90;43.00
84141;DHT22;74257;52.540;13.416;2023-12-28T08:39:10;21.90;43.00
84141;DHT22;74257;52.540;13.416;2023-12-28T08:41:36;21.90;43.00
84141;DHT22;74257;52.540;13.416;2023-12-28T08:44:02;21.90;43.00
84141;DHT22;74257;52.540;13.416;2023-12-28T08:46:27;21.90;43.00
84141;DHT22;74257;52.540;13.416;2023-12-28T08:48:54;21.90;43.00
84141;DHT22;74257;52.540;13.416;2023-12-28T08:51:20;21.90;43.00
84141;DHT22;74257;52.540;13.416;2023-12-28T08:53:46;21.90;42.90
84141;DHT22;74257;52.540;13.416;2023-12-28T08:56:22;21.90;42.90
84141;DHT22;74257;52.540;13.416;2023-12-28T08:58:48;21.90;42.90
84141;DHT22;74257;52.540;13.416;2023-12-28T09:01:22;21.90;42.90
84141;DHT22;74257;52.540;13.416;2023-12-28T09:03:49;21.90;42.80
84141;DHT22;74257;52.540;13.416;2023-12-28T09:06:18;21.90;42.80
84141;DHT22;74257;52.540;13.416;2023-12-28T09:08:48;21.90;42.80
84141;DHT22;74257;52.540;13.416;2023-12-28T09:11:14;21.90;42.80
84141;DHT22;74257;52.540;13.416;2023-12-28T09:13:40;22.00;42.80
84141;DHT22;74257;52.540;13.416;2023-12-28T09:16:09;22.00;42.80
84141;DHT22;74257;52.540;13.416;2023-12-28T09:18:35;22.00;42.80
84141;DHT22;74257;52.540;13.416;2023-12-28T09:21:04;22.00;42.80
84141;DHT22;74257;52.540;13.416;2023-12-28T09:23:32;22.00;42.80
84141;DHT22;74257;52.540;13.416;2023-12-28T09:25:59;22.00;42.80
84141;DHT22;74257;52.540;13.416;2023-12-28T09:28:25;22.00;42.70
84141;DHT22;74257;52.540;13.416;2023-12-28T09:30:51;22.00;42.70
84141;DHT22;74257;52.540;13.416;2023-12-28T09:33:17;22.00;42.70
84141;DHT22;74257;52.540;13.416;2023-12-28T09:35:43;22.00;42.70
84141;DHT22;74257;52.540;13.416;2023-12-28T09:38:09;22.00;42.70
84141;DHT22;74257;52.540;13.416;2023-12-28T09:40:38;22.00;42.60
84141;DHT22;74257;52.540;13.416;2023-12-28T09:43:15;22.00;42.70
84141;DHT22;74257;52.540;13.416;2023-12-28T09:45:46;22.00;42.60
84141;DHT22;74257;52.540;13.416;2023-12-28T09:48:17;22.10;42.60
84141;DHT22;74257;52.540;13.416;2023-12-28T09:50:53;22.10;42.60
84141;DHT22;74257;52.540;13.416;2023-12-28T09:53:25;22.00;42.60
84141;DHT22;74257;52.540;13.416;2023-12-28T09:55:52;22.10;42.70
84141;DHT22;74257;52.540;13.416;2023-12-28T09:58:19;22.10;42.60
84141;DHT22;74257;52.540;13.416;2023-12-28T10:00:46;22.10;42.60
84141;DHT22;74257;52.540;13.416;2023-12-28T10:03:13;22.10;42.60
84141;DHT22;74257;52.540;13.416;2023-12-28T10:05:44;22.10;42.60
84141;DHT22;74257;52.540;13.416;2023-12-28T10:08:14;22.10;42.60
84141;DHT22;74257;52.540;13.416;2023-12-28T10:10:41;22.10;42.60
84141;DHT22;74257;52.540;13.416;2023-12-28T10:13:07;22.10;42.60
84141;DHT22;74257;52.540;13.416;2023-12-28T10:15:35;22.10;42.60
84141;DHT22;74257;52.540;13.416;2023-12-28T10:18:01;22.10;42.60
84141;DHT22;74257;52.540;13.416;2023-12-28T10:20:27;22.10;42.60
84141;DHT22;74257;52.540;13.416;2023-12-28T10:22:53;22.10;42.60
84141;DHT22;74257;52.540;13.416;2023-12-28T10:25:19;22.20;42.60
84141;DHT22;74257;52.540;13.416;2023-12-28T10:27:45;22.10;42.60
84141;DHT22;74257;52.540;13.416;2023-12-28T10:30:11;22.20;42.50
84141;DHT22;74257;52.540;13.416;2023-12-28T10:32:40;22.20;42.50
84141;DHT22;74257;52.540;13.416;2023-12-28T10:35:06;22.20;42.50
84141;DHT22;74257;52.540;13.416;2023-12-28T10:37:32;22.20;42.50
84141;DHT22;74257;52.540;13.416;2023-12-28T10:40:05;22.20;42.50
84141;DHT22;74257;52.540;13.416;2023-12-28T10:42:34;22.20;42.50
84141;DHT22;74257;52.540;13.416;2023-12-28T10:45:06;22.20;42.60
84141;DHT22;74257;52.540;13.416;2023-12-28T10:47:39;22.20;42.50
84141;DHT22;74257;52.540;13.416;2023-12-28T10:50:10;22.20;42.50
84141;DHT22;74257;52.540;13.416;2023-12-28T10:52:39;22.20;42.60
84141;DHT22;74257;52.540;13.416;2023-12-28T10:55:13;22.20;42.60
84141;DHT22;74257;52.540;13.416;2023-12-28T10:58:03;22.20;42.50
84141;DHT22;74257;52.540;13.416;2023-12-28T11:00:33;22.20;42.50
84141;DHT22;74257;52.540;13.416;2023-12-28T11:03:06;22.20;42.50
84141;DHT22;74257;52.540;13.416;2023-12-28T11:05:35;22.20;42.50
84141;DHT22;74257;52.540;13.416;2023-12-28T11:08:03;22.20;42.50
84141;DHT22;74257;52.540;13.416;2023-12-28T11:10:31;22.20;42.50
84141;DHT22;74257;52.540;13.416;2023-12-28T11:12:59;22.20;42.50
84141;DHT22;74257;52.540;13.416;2023-12-28T11:15:26;22.20;42.50
84141;DHT22;74257;52.540;13.416;2023-12-28T11:17:52;22.20;42.50
84141;DHT22;74257;52.540;13.416;2023-12-28T11:20:19;22.20;42.50
84141;DHT22;74257;52.540;13.416;2023-12-28T11:22:46;22.20;42.40
84141;DHT22;74257;52.540;13.416;2023-12-28T11:25:17;22.20;42.40
84141;DHT22;74257;52.540;13.416;2023-12-28T11:27:45;22.20;42.40
84141;DHT22;74257;52.540;13.416;2023-12-28T11:30:12;22.20;42.40
84141;DHT22;74257;52.540;13.416;2023-12-28T11:32:41;22.20;42.40
84141;DHT22;74257;52.540;13.416;2023-12-28T11:35:11;22.20;42.40
84141;DHT22;74257;52.540;13.416;2023-12-28T11:37:40;22.30;42.50
84141;DHT22;74257;52.540;13.416;2023-12-28T11:40:11;22.20;42.40
84141;DHT22;74257;52.540;13.416;2023-12-28T11:42:51;22.30;42.40
84141;DHT22;74257;52.540;13.416;2023-12-28T11:45:18;22.30;42.40
84141;DHT22;74257;52.540;13.416;2023-12-28T11:47:44;22.30;42.40
84141;DHT22;74257;52.540;13.416;2023-12-28T11:50:11;22.30;42.40
84141;DHT22;74257;52.540;13.416;2023-12-28T11:52:38;22.30;42.50
84141;DHT22;74257;52.540;13.416;2023-12-28T11:55:04;22.30;42.40
84141;DHT22;74257;52.540;13.416;2023-12-28T11:57:30;22.30;42.40
84141;DHT22;74257;52.540;13.416;2023-12-28T12:00:00;22.30;42.40
84141;DHT22;74257;52.540;13.416;2023-12-28T12:02:27;22.30;42.40
84141;DHT22;74257;52.540;13.416;2023-12-28T12:04:56;22.30;42.40
84141;DHT22;74257;52.540;13.416;2023-12-28T12:07:26;22.30;42.40
84141;DHT22;74257;52.540;13.416;2023-12-28T12:09:55;22.30;42.30
84141;DHT22;74257;52.540;13.416;2023-12-28T12:12:21;22.30;42.30
84141;DHT22;74257;52.540;13.416;2023-12-28T12:14:46;22.30;42.30
84141;DHT22;74257;52.540;13.416;2023-12-28T12:17:12;22.30;42.20
84141;DHT22;74257;52.540;13.416;2023-12-28T12:19:38;22.30;42.20
84141;DHT22;74257;52.540;13.416;2023-12-28T12:22:04;22.30;42.30
84141;DHT22;74257;52.540;13.416;2023-12-28T12:24:31;22.30;42.20
84141;DHT22;74257;52.540;13.416;2023-12-28T12:26:58;22.30;42.20
84141;DHT22;74257;52.540;13.416;2023-12-28T12:29:26;22.30;42.20
84141;DHT22;74257;52.540;13.416;2023-12-28T12:31:52;22.30;42.20
84141;DHT22;74257;52.540;13.416;2023-12-28T12:34:18;22.30;42.20
84141;DHT22;74257;52.540;13.416;2023-12-28T12:36:44;22.30;42.30
84141;DHT22;74257;52.540;13.416;2023-12-28T12:39:10;22.30;42.30
84141;DHT22;74257;52.540;13.416;2023-12-28T12:41:37;22.30;42.30
84141;DHT22;74257;52.540;13.416;2023-12-28T12:44:05;22.40;42.20
84141;DHT22;74257;52.540;13.416;2023-12-28T12:46:32;22.40;42.30
84141;DHT22;74257;52.540;13.416;2023-12-28T12:48:58;22.40;42.30
84141;DHT22;74257;52.540;13.416;2023-12-28T12:51:26;22.40;42.30
84141;DHT22;74257;52.540;13.416;2023-12-28T12:53:58;22.40;42.30
84141;DHT22;74257;52.540;13.416;2023-12-28T12:56:28;22.40;42.30
84141;DHT22;74257;52.540;13.416;2023-12-28T12:58:55;22.40;42.40
84141;DHT22;74257;52.540;13.416;2023-12-28T13:01:22;22.40;42.30
84141;DHT22;74257;52.540;13.416;2023-12-28T13:03:48;22.40;42.40
84141;DHT22;74257;52.540;13.416;2023-12-28T13:06:15;22.40;42.30
84141;DHT22;74257;52.540;13.416;2023-12-28T13:08:41;22.40;42.40
84141;DHT22;74257;52.540;13.416;2023-12-28T13:11:07;22.50;42.30
84141;DHT22;74257;52.540;13.416;2023-12-28T13:13:35;22.50;42.40
84141;DHT22;74257;52.540;13.416;2023-12-28T13:16:02;22.50;42.30
84141;DHT22;74257;52.540;13.416;2023-12-28T13:18:28;22.50;42.40
84141;DHT22;74257;52.540;13.416;2023-12-28T13:20:54;22.50;42.30
84141;DHT22;74257;52.540;13.416;2023-12-28T13:23:20;22.50;42.30
84141;DHT22;74257;52.540;13.416;2023-12-28T13:25:46;22.50;42.30
84141;DHT22;74257;52.540;13.416;2023-12-28T13:28:12;22.50;42.30
84141;DHT22;74257;52.540;13.416;2023-12-28T13:30:39;22.50;42.20
84141;DHT22;74257;52.540;13.416;2023-12-28T13:33:05;22.50;42.30
84141;DHT22;74257;52.540;13.416;2023-12-28T13:35:32;22.50;42.30
84141;DHT22;74257;52.540;13.416;2023-12-28T13:38:00;22.50;42.20
84141;DHT22;74257;52.540;13.416;2023-12-28T13:40:29;22.50;42.20
84141;DHT22;74257;52.540;13.416;2023-12-28T13:42:56;22.50;42.20
84141;DHT22;74257;52.540;13.416;2023-12-28T13:45:22;22.50;42.20
84141;DHT22;74257;52.540;13.416;2023-12-28T13:47:48;22.50;42.20
84141;DHT22;74257;52.540;13.416;2023-12-28T13:50:14;22.50;42.20
84141;DHT22;74257;52.540;13.416;2023-12-28T13:52:40;22.50;42.20
84141;DHT22;74257;52.540;13.416;2023-12-28T13:55:06;22.50;42.20
84141;DHT22;74257;52.540;13.416;2023-12-28T13:57:32;22.50;42.20
84141;DHT22;74257;52.540;13.416;2023-12-28T13:59:58;22.50;42.20
84141;DHT22;74257;52.540;13.416;2023-12-28T14:02:26;22.50;42.10
84141;DHT22;74257;52.540;13.416;2023-12-28T14:04:52;22.50;42.20
84141;DHT22;74257;52.540;13.416;2023-12-28T14:07:19;22.50;42.10
84141;DHT22;74257;52.540;13.416;2023-12-28T14:09:45;22.50;42.20
84141;DHT22;74257;52.540;13.416;2023-12-28T14:12:11;22.50;42.20
84141;DHT22;74257;52.540;13.416;2023-12-28T14:14:37;22.50;42.10
84141;DHT22;74257;52.540;13.416;2023-12-28T14:17:03;22.50;42.10
84141;DHT22;74257;52.540;13.416;2023-12-28T14:19:30;22.50;42.10
84141;DHT22;74257;52.540;13.416;2023-12-28T14:21:56;22.50;42.10
84141;DHT22;74257;52.540;13.416;2023-12-28T14:24:23;22.50;42.00
84141;DHT22;74257;52.540;13.416;2023-12-28T14:26:55;22.50;42.00
84141;DHT22;74257;52.540;13.416;2023-12-28T14:29:22;22.50;42.00
84141;DHT22;74257;52.540;13.416;2023-12-28T14:31:48;22.50;42.10
84141;DHT22;74257;52.540;13.416;2023-12-28T14:34:14;22.50;42.00
84141;DHT22;74257;52.540;13.416;2023-12-28T14:36:40;22.50;42.00
84141;DHT22;74257;52.540;13.416;2023-12-28T14:39:08;22.50;42.00
84141;DHT22;74257;52.540;13.416;2023-12-28T14:41:34;22.50;41.90
84141;DHT22;74257;52.540;13.416;2023-12-28T14:44:00;22.50;41.90
84141;DHT22;74257;52.540;13.416;2023-12-28T14:46:26;22.50;41.90
84141;DHT22;74257;52.540;13.416;2023-12-28T14:48:53;22.50;41.80
84141;DHT22;74257;52.540;13.416;2023-12-28T14:51:19;22.50;41.80
84141;DHT22;74257;52.540;13.416;2023-12-28T14:53:45;22.50;41.80
84141;DHT22;74257;52.540;13.416;2023-12-28T14:56:11;22.50;41.80
84141;DHT22;74257;52.540;13.416;2023-12-28T14:58:41;22.50;41.80
84141;DHT22;74257;52.540;13.416;2023-12-28T15:01:11;22.50;41.80
84141;DHT22;74257;52.540;13.416;2023-12-28T15:03:38;22.50;41.80
84141;DHT22;74257;52.540;13.416;2023-12-28T15:06:05;22.50;41.80
84141;DHT22;74257;52.540;13.416;2023-12-28T15:08:31;22.50;41.80
84141;DHT22;74257;52.540;13.416;2023-12-28T15:10:57;22.50;41.80
84141;DHT22;74257;52.540;13.416;2023-12-28T15:13:23;22.50;41.70